Terminal Aerodrome Forecast
Issued by NWS Mt. Holly, NJ

Home | Current Version | Previous Version | Text Only | Print | Product List | Glossary On
Versions: 1 2 3 4 5 6 7 8 9 10 11 12 13 14 15 16 17 18 19 20 21 22 23 24 25
000
FTUS41 KPHI 241349 AAB
TAFACY
TAF AMD
KACY 241349Z 2414/2512 34017G24KT 3SM -RADZ BR BKN008 OVC012
      TEMPO 2414/2417 1SM -RADZ BR
     FM241800 32017G27KT 5SM -SHRA BR OVC015
     FM250100 31015G25KT P6SM BKN035
     FM250700 30013KT P6SM SKC=

USA.gov is the U.S. government's official web portal to all federal, state and local government web resources and services.